createdAt,value
2022-08-03T00:00:17.113Z,20.41
2022-08-03T00:02:51.202Z,20.45
2022-08-03T00:05:23.691Z,20.48
2022-08-03T00:07:56.165Z,20.49
2022-08-03T00:10:29.205Z,20.48
2022-08-03T00:13:01.859Z,20.47
2022-08-03T00:15:34.347Z,20.47
2022-08-03T00:18:08.580Z,20.47
2022-08-03T00:20:41.151Z,20.49
2022-08-03T00:23:13.748Z,20.46
2022-08-03T00:25:46.262Z,20.49
2022-08-03T00:28:18.745Z,20.49
2022-08-03T00:30:51.271Z,20.49
2022-08-03T00:33:25.897Z,20.49
2022-08-03T00:36:00.578Z,20.50
2022-08-03T00:38:33.096Z,20.48
2022-08-03T00:41:05.681Z,20.47
2022-08-03T00:43:38.320Z,20.48
2022-08-03T00:46:11.045Z,20.47
2022-08-03T00:48:44.816Z,20.46
2022-08-03T00:51:17.401Z,20.47
2022-08-03T00:53:50.014Z,20.44
2022-08-03T00:56:22.453Z,20.46
2022-08-03T00:58:58.138Z,20.42
2022-08-03T01:01:32.617Z,20.43
2022-08-03T01:04:06.778Z,20.42
2022-08-03T01:06:49.093Z,20.41
2022-08-03T01:09:31.222Z,20.38
2022-08-03T01:12:12.969Z,20.38
2022-08-03T01:14:52.108Z,20.34
2022-08-03T01:17:29.366Z,20.29
2022-08-03T01:20:07.224Z,20.30
2022-08-03T01:23:17.993Z,20.28
2022-08-03T01:26:09.307Z,20.28
2022-08-03T01:29:08.087Z,20.26
2022-08-03T01:32:59.600Z,20.25
2022-08-03T01:34:45.635Z,20.18
2022-08-03T01:37:25.100Z,20.23
2022-08-03T01:40:01.319Z,20.22
2022-08-03T01:42:38.058Z,20.20
2022-08-03T01:45:13.128Z,20.21
2022-08-03T01:47:49.622Z,20.18
2022-08-03T01:50:27.458Z,20.17
2022-08-03T01:53:00.655Z,20.19
2022-08-03T01:55:34.751Z,20.20
2022-08-03T01:58:08.649Z,20.21
2022-08-03T02:00:42.348Z,20.20
2022-08-03T02:03:17.648Z,20.18
2022-08-03T02:06:11.499Z,20.19
2022-08-03T02:08:47.877Z,20.20
2022-08-03T02:11:20.467Z,20.19
2022-08-03T02:13:55.064Z,20.18
2022-08-03T02:16:33.672Z,20.16
2022-08-03T02:19:08.645Z,20.16
2022-08-03T02:21:57.156Z,20.16
2022-08-03T02:24:33.895Z,20.15
2022-08-03T02:27:11.437Z,20.14
2022-08-03T02:29:47.370Z,20.14
2022-08-03T02:32:23.214Z,20.12
2022-08-03T02:34:59.721Z,20.12
2022-08-03T02:37:37.013Z,20.11
2022-08-03T02:40:16.956Z,20.13
2022-08-03T02:42:53.534Z,20.16
2022-08-03T02:45:28.140Z,20.16
2022-08-03T02:48:04.330Z,20.17
2022-08-03T02:50:39.532Z,20.19
2022-08-03T02:53:12.861Z,20.20
2022-08-03T02:55:47.859Z,20.22
2022-08-03T02:58:21.580Z,20.23
2022-08-03T03:00:55.343Z,20.25
2022-08-03T03:03:30.641Z,20.19
2022-08-03T03:06:11.069Z,20.32
2022-08-03T03:08:44.030Z,20.36
2022-08-03T03:11:19.208Z,20.40
2022-08-03T03:13:52.029Z,20.44
2022-08-03T03:16:26.820Z,20.47
2022-08-03T03:19:00.457Z,20.50
2022-08-03T03:21:35.568Z,20.54
2022-08-03T03:24:09.865Z,20.55
2022-08-03T03:26:43.629Z,20.61
2022-08-03T03:29:16.593Z,20.63
2022-08-03T03:31:49.478Z,20.63
2022-08-03T03:34:22.149Z,20.64
2022-08-03T03:36:57.716Z,20.65
2022-08-03T03:39:30.345Z,20.67
2022-08-03T03:42:03.045Z,20.70
2022-08-03T03:44:35.521Z,20.75
2022-08-03T03:47:08.091Z,20.80
2022-08-03T03:49:41.042Z,20.85
2022-08-03T03:52:16.985Z,20.91
2022-08-03T03:54:49.677Z,20.95
2022-08-03T03:57:22.003Z,20.97
2022-08-03T03:59:54.532Z,20.96
2022-08-03T04:02:27.687Z,21.02
2022-08-03T04:05:18.771Z,21.01
2022-08-03T04:08:17.662Z,21.01
2022-08-03T04:11:02.610Z,20.99
2022-08-03T04:13:38.962Z,20.98
2022-08-03T04:16:14.810Z,20.95
2022-08-03T04:18:57.908Z,20.95
2022-08-03T04:21:32.550Z,20.97
2022-08-03T04:24:09.740Z,20.99
2022-08-03T04:26:48.503Z,21.04
2022-08-03T04:29:55.406Z,21.09
2022-08-03T04:32:30.020Z,21.11
2022-08-03T04:35:02.917Z,21.13
2022-08-03T04:37:39.897Z,21.21
2022-08-03T04:40:20.410Z,21.26
2022-08-03T04:42:56.699Z,21.30
2022-08-03T04:45:30.741Z,21.35
2022-08-03T04:48:04.164Z,21.46
2022-08-03T04:50:36.858Z,21.53
2022-08-03T04:53:10.433Z,21.65
2022-08-03T04:55:44.941Z,21.80
2022-08-03T04:58:17.464Z,21.95
2022-08-03T05:00:52.227Z,22.10
2022-08-03T05:03:25.120Z,22.28
2022-08-03T05:06:01.980Z,22.37
2022-08-03T05:08:46.842Z,22.55
2022-08-03T05:11:21.463Z,22.60
2022-08-03T05:13:54.574Z,22.70
2022-08-03T05:16:27.338Z,22.83
2022-08-03T05:18:59.773Z,22.96
2022-08-03T05:21:50.347Z,23.18
2022-08-03T05:24:24.972Z,23.39
2022-08-03T05:26:58.913Z,23.67
2022-08-03T05:29:31.441Z,24.05
2022-08-03T05:32:08.150Z,24.42
2022-08-03T05:34:41.076Z,24.78
2022-08-03T05:37:13.686Z,25.03
2022-08-03T05:39:46.116Z,25.25
2022-08-03T05:42:19.978Z,25.48
2022-08-03T05:44:52.546Z,25.66
2022-08-03T05:47:31.306Z,25.83
2022-08-03T05:50:04.178Z,25.96
2022-08-03T05:52:36.576Z,26.07
2022-08-03T05:55:10.730Z,26.19
2022-08-03T05:57:46.384Z,26.25
2022-08-03T06:00:19.088Z,26.30
2022-08-03T06:02:51.480Z,26.35
2022-08-03T06:05:24.255Z,26.39
2022-08-03T06:07:56.840Z,26.38
2022-08-03T06:10:35.661Z,26.41
2022-08-03T06:13:11.585Z,26.44
2022-08-03T06:15:44.231Z,26.44
2022-08-03T06:18:16.757Z,26.42
2022-08-03T06:20:50.240Z,26.45
2022-08-03T06:23:26.297Z,26.48
2022-08-03T06:26:15.666Z,26.50
2022-08-03T06:28:52.424Z,26.57
2022-08-03T06:31:32.330Z,26.57
2022-08-03T06:34:32.699Z,26.49
2022-08-03T06:37:02.119Z,26.43
2022-08-03T06:39:35.169Z,26.30
2022-08-03T06:42:09.863Z,26.12
2022-08-03T06:44:44.320Z,25.93
2022-08-03T06:47:17.413Z,25.78
2022-08-03T06:50:12.652Z,25.79
2022-08-03T06:52:42.745Z,25.91
2022-08-03T06:55:15.702Z,26.00
2022-08-03T06:57:48.540Z,26.14
2022-08-03T07:00:22.776Z,26.24
2022-08-03T07:02:58.311Z,26.35
2022-08-03T07:05:33.596Z,26.53
2022-08-03T07:08:06.291Z,26.67
2022-08-03T07:10:38.981Z,26.77
2022-08-03T07:13:12.922Z,26.84
2022-08-03T07:15:55.602Z,26.83
2022-08-03T07:18:30.765Z,26.78
2022-08-03T07:21:03.833Z,26.79
2022-08-03T07:23:36.302Z,26.77
2022-08-03T07:26:08.789Z,26.76
2022-08-03T07:28:42.665Z,26.74
2022-08-03T07:31:16.594Z,26.71
2022-08-03T07:33:49.081Z,26.67
2022-08-03T07:36:21.603Z,26.64
2022-08-03T07:38:54.161Z,26.61
2022-08-03T07:41:26.733Z,26.59
2022-08-03T07:43:59.143Z,26.57
2022-08-03T07:46:35.036Z,26.62
2022-08-03T07:49:07.685Z,26.64
2022-08-03T07:51:40.501Z,26.67
2022-08-03T07:54:12.942Z,26.64
2022-08-03T07:57:04.352Z,26.62
2022-08-03T07:59:57.214Z,26.64
2022-08-03T08:02:33.717Z,26.67
2022-08-03T08:05:06.724Z,26.73
2022-08-03T08:07:39.565Z,26.64
2022-08-03T08:10:12.203Z,26.80
2022-08-03T08:12:45.641Z,26.82
2022-08-03T08:15:18.058Z,26.88
2022-08-03T08:17:54.138Z,26.92
2022-08-03T08:20:31.410Z,26.94
2022-08-03T08:23:09.627Z,26.95
2022-08-03T08:25:59.627Z,26.94
2022-08-03T08:28:33.751Z,26.97
2022-08-03T08:31:06.906Z,26.99
2022-08-03T08:36:33.723Z,27.08
2022-08-03T08:39:06.195Z,27.14
2022-08-03T08:41:39.013Z,27.19
2022-08-03T08:44:18.963Z,27.24
2022-08-03T08:46:54.041Z,27.25
2022-08-03T08:49:29.755Z,27.26
2022-08-03T08:52:05.138Z,27.24
2022-08-03T08:55:00.693Z,27.26
2022-08-03T08:57:42.958Z,27.25
2022-08-03T09:00:17.304Z,27.21
2022-08-03T09:02:49.805Z,27.17
2022-08-03T09:05:41.361Z,27.14
2022-08-03T09:08:17.012Z,27.10
2022-08-03T09:10:49.730Z,27.06
2022-08-03T09:13:22.866Z,27.02
2022-08-03T09:16:13.253Z,26.99
2022-08-03T09:18:47.698Z,26.98
2022-08-03T09:21:31.779Z,26.98
2022-08-03T09:24:13.013Z,26.98
2022-08-03T09:26:52.223Z,27.02
2022-08-03T09:29:26.642Z,27.05
2022-08-03T09:32:02.576Z,27.11
2022-08-03T09:34:35.337Z,27.16
2022-08-03T09:37:15.156Z,27.19
2022-08-03T09:39:48.205Z,27.23
2022-08-03T09:42:23.567Z,27.26
2022-08-03T09:44:58.259Z,27.27
2022-08-03T09:47:32.494Z,27.36
2022-08-03T09:50:06.931Z,27.43
2022-08-03T09:52:52.275Z,27.47
2022-08-03T09:56:34.034Z,27.48
2022-08-03T09:58:18.462Z,27.50
2022-08-03T10:00:56.264Z,27.49
2022-08-03T10:03:31.109Z,27.45
2022-08-03T10:06:16.296Z,27.43
2022-08-03T10:09:07.179Z,27.43
2022-08-03T10:11:42.332Z,27.41
2022-08-03T10:14:21.325Z,27.37
2022-08-03T10:16:53.913Z,27.42
2022-08-03T10:19:26.486Z,27.42
2022-08-03T10:22:04.511Z,27.40
2022-08-03T10:24:44.936Z,27.41
2022-08-03T10:27:19.784Z,27.36
2022-08-03T10:29:55.300Z,27.42
2022-08-03T10:32:30.894Z,27.49
2022-08-03T10:35:20.096Z,27.53
2022-08-03T10:37:58.696Z,27.59
2022-08-03T10:40:51.100Z,27.63
2022-08-03T10:43:34.129Z,27.68
2022-08-03T10:46:08.677Z,27.70
2022-08-03T10:48:41.645Z,27.71
2022-08-03T10:51:14.608Z,27.74
2022-08-03T10:53:55.522Z,27.77
2022-08-03T10:57:03.445Z,27.79
2022-08-03T11:00:03.802Z,27.78
2022-08-03T11:03:11.352Z,27.82
2022-08-03T11:05:45.243Z,27.76
2022-08-03T11:08:28.786Z,27.69
2022-08-03T11:11:03.462Z,27.60
2022-08-03T11:13:37.424Z,27.53
2022-08-03T11:16:22.330Z,27.48
2022-08-03T11:18:59.815Z,27.42
2022-08-03T11:21:54.218Z,27.35
2022-08-03T11:24:57.814Z,27.29
2022-08-03T11:27:32.213Z,27.25
2022-08-03T11:30:08.280Z,27.24
2022-08-03T11:32:57.041Z,27.23
2022-08-03T11:35:31.403Z,27.21
2022-08-03T11:38:10.257Z,27.27
2022-08-03T11:40:47.435Z,27.27
2022-08-03T11:43:49.871Z,27.30
2022-08-03T11:46:28.657Z,27.29
2022-08-03T11:49:09.873Z,27.28
2022-08-03T11:51:43.544Z,27.28
2022-08-03T11:54:20.488Z,27.29
2022-08-03T11:56:53.217Z,27.23
2022-08-03T11:59:32.648Z,27.29
2022-08-03T12:02:10.402Z,27.29
2022-08-03T12:04:52.456Z,27.28
2022-08-03T12:08:03.826Z,27.28
2022-08-03T12:10:21.277Z,27.24
2022-08-03T12:12:55.849Z,27.21
2022-08-03T12:15:30.117Z,27.23
2022-08-03T12:18:12.870Z,27.23
2022-08-03T12:20:45.803Z,27.20
2022-08-03T12:23:20.027Z,27.21
2022-08-03T12:25:52.745Z,27.21
2022-08-03T12:28:37.322Z,27.20
2022-08-03T12:31:10.866Z,27.11
2022-08-03T12:34:02.898Z,27.21
2022-08-03T12:36:36.630Z,27.23
2022-08-03T12:39:11.969Z,27.26
2022-08-03T12:41:45.043Z,27.27
2022-08-03T12:44:17.647Z,27.34
2022-08-03T12:46:58.870Z,27.39
2022-08-03T12:49:45.480Z,27.40
2022-08-03T12:52:19.626Z,27.46
2022-08-03T12:54:56.441Z,27.48
2022-08-03T12:57:41.449Z,27.47
2022-08-03T13:00:21.409Z,27.48
2022-08-03T13:03:38.264Z,27.49
2022-08-03T13:05:57.845Z,27.49
2022-08-03T13:08:30.358Z,27.49
2022-08-03T13:11:19.223Z,27.49
2022-08-03T13:13:52.808Z,27.48
2022-08-03T13:16:25.494Z,27.43
2022-08-03T13:18:58.000Z,27.47
2022-08-03T13:21:33.232Z,27.46
2022-08-03T13:24:06.139Z,27.48
2022-08-03T13:26:38.586Z,27.48
2022-08-03T13:29:11.271Z,27.51
2022-08-03T13:31:51.145Z,27.51
2022-08-03T13:34:24.198Z,27.50
2022-08-03T13:37:13.433Z,27.51
2022-08-03T13:39:57.828Z,27.51
2022-08-03T13:42:34.331Z,27.50
2022-08-03T13:45:08.912Z,27.50
2022-08-03T13:47:41.538Z,27.49
2022-08-03T13:50:15.465Z,27.47
2022-08-03T13:52:49.525Z,27.45
2022-08-03T13:55:22.145Z,27.43
2022-08-03T13:58:11.477Z,27.42
2022-08-03T14:00:44.130Z,27.39
2022-08-03T14:03:16.708Z,27.37
2022-08-03T14:05:49.180Z,27.35
2022-08-03T14:08:22.934Z,27.32
2022-08-03T14:10:55.462Z,27.35
2022-08-03T14:13:28.097Z,27.36
2022-08-03T14:16:00.565Z,27.37
2022-08-03T14:18:40.291Z,27.37
2022-08-03T14:21:14.362Z,27.36
2022-08-03T14:23:48.734Z,27.31
2022-08-03T14:26:21.161Z,27.29
2022-08-03T14:28:53.711Z,27.26
2022-08-03T14:32:09.497Z,27.24
2022-08-03T14:34:19.424Z,27.22
2022-08-03T14:36:51.906Z,27.18
2022-08-03T14:39:26.158Z,27.14
2022-08-03T14:41:58.741Z,27.13
2022-08-03T14:44:31.259Z,27.09
2022-08-03T14:47:03.741Z,27.08
2022-08-03T14:50:30.973Z,27.07
2022-08-03T14:52:28.644Z,27.06
2022-08-03T14:55:02.577Z,27.05
2022-08-03T14:57:35.721Z,27.03
2022-08-03T15:00:09.600Z,27.01
2022-08-03T15:02:42.265Z,26.98
2022-08-03T15:05:15.606Z,26.96
2022-08-03T15:07:48.090Z,26.93
2022-08-03T15:10:21.962Z,26.91
2022-08-03T15:13:03.105Z,26.87
2022-08-03T15:15:35.744Z,26.81
2022-08-03T15:18:08.997Z,26.77
2022-08-03T15:20:46.348Z,26.68
2022-08-03T15:23:19.615Z,26.64
2022-08-03T15:26:29.501Z,26.59
2022-08-03T15:28:46.114Z,26.52
2022-08-03T15:31:22.206Z,26.46
2022-08-03T15:33:54.789Z,26.41
2022-08-03T15:36:27.338Z,26.36
2022-08-03T15:38:59.821Z,26.32
2022-08-03T15:41:33.686Z,26.28
2022-08-03T15:44:09.206Z,26.23
2022-08-03T15:46:41.981Z,26.19
2022-08-03T15:49:14.614Z,26.16
2022-08-03T15:51:47.413Z,26.10
2022-08-03T15:54:19.941Z,26.07
2022-08-03T15:56:53.968Z,26.03
2022-08-03T15:59:26.363Z,25.99
2022-08-03T16:01:59.024Z,25.96
2022-08-03T16:04:31.654Z,25.93
2022-08-03T16:07:04.587Z,25.90
2022-08-03T16:09:42.508Z,25.86
2022-08-03T16:12:17.656Z,25.80
2022-08-03T16:14:53.935Z,25.76
2022-08-03T16:17:26.738Z,25.72
2022-08-03T16:19:59.387Z,25.67
2022-08-03T16:22:32.288Z,25.64
2022-08-03T16:25:06.445Z,25.60
2022-08-03T16:27:56.766Z,25.52
2022-08-03T16:30:41.082Z,25.49
2022-08-03T16:33:17.305Z,25.43
2022-08-03T16:35:50.505Z,25.40
2022-08-03T16:38:23.224Z,25.35
2022-08-03T16:40:55.652Z,25.30
2022-08-03T16:43:29.547Z,25.24
2022-08-03T16:46:02.268Z,25.20
2022-08-03T16:48:34.865Z,25.13
2022-08-03T16:51:07.401Z,25.05
2022-08-03T16:54:08.062Z,25.00
2022-08-03T16:56:32.314Z,24.92
2022-08-03T16:59:10.402Z,24.88
2022-08-03T17:01:47.106Z,24.83
2022-08-03T17:04:19.703Z,24.81
2022-08-03T17:06:52.542Z,24.78
2022-08-03T17:09:25.080Z,24.73
2022-08-03T17:11:57.700Z,24.69
2022-08-03T17:14:31.450Z,24.66
2022-08-03T17:17:08.813Z,24.60
2022-08-03T17:19:54.173Z,24.57
2022-08-03T17:22:32.266Z,24.50
2022-08-03T17:25:07.617Z,24.47
2022-08-03T17:28:48.767Z,24.43
2022-08-03T17:30:56.062Z,24.34
2022-08-03T17:33:35.547Z,24.27
2022-08-03T17:36:08.610Z,24.18
2022-08-03T17:38:43.102Z,24.16
2022-08-03T17:41:16.655Z,24.10
2022-08-03T17:44:15.219Z,24.07
2022-08-03T17:46:48.428Z,24.01
2022-08-03T17:49:25.229Z,24.02
2022-08-03T17:52:03.035Z,23.98
2022-08-03T17:55:50.608Z,23.93
2022-08-03T17:58:02.288Z,23.88
2022-08-03T18:00:55.942Z,23.80
2022-08-03T18:03:59.063Z,23.73
2022-08-03T18:06:37.057Z,23.68
2022-08-03T18:10:03.312Z,23.60
2022-08-03T18:12:10.101Z,23.56
2022-08-03T18:14:57.251Z,23.51
2022-08-03T18:17:58.255Z,23.45
2022-08-03T18:20:41.033Z,23.42
2022-08-03T18:23:25.318Z,23.17
2022-08-03T18:26:10.675Z,23.35
2022-08-03T18:28:45.109Z,23.30
2022-08-03T18:31:33.198Z,23.27
2022-08-03T18:34:16.411Z,23.21
2022-08-03T18:37:07.867Z,23.16
2022-08-03T18:39:49.458Z,23.12
2022-08-03T18:42:25.588Z,23.08
2022-08-03T18:44:59.546Z,23.04
2022-08-03T18:47:57.281Z,23.01
2022-08-03T18:50:36.726Z,22.95
2022-08-03T18:53:19.751Z,22.95
2022-08-03T18:56:02.129Z,22.90
2022-08-03T18:58:44.163Z,22.84
2022-08-03T19:01:59.581Z,22.76
2022-08-03T19:04:31.226Z,22.67
2022-08-03T19:07:08.071Z,22.62
2022-08-03T19:09:48.321Z,22.56
2022-08-03T19:12:31.179Z,22.51
2022-08-03T19:15:10.614Z,22.47
2022-08-03T19:17:52.842Z,22.44
2022-08-03T19:20:28.628Z,22.34
2022-08-03T19:23:01.366Z,22.34
2022-08-03T19:25:40.323Z,22.32
2022-08-03T19:28:13.231Z,22.27
2022-08-03T19:30:53.593Z,22.21
2022-08-03T19:33:29.787Z,22.20
2022-08-03T19:36:06.051Z,22.15
2022-08-03T19:38:44.137Z,22.12
2022-08-03T19:41:19.487Z,22.07
2022-08-03T19:43:57.629Z,22.04
2022-08-03T19:46:34.095Z,22.01
2022-08-03T19:49:15.075Z,21.98
2022-08-03T19:51:58.892Z,21.95
2022-08-03T19:54:39.703Z,21.89
2022-08-03T19:57:28.643Z,21.87
2022-08-03T20:02:54.453Z,21.79
2022-08-03T20:05:27.262Z,21.78
2022-08-03T20:08:01.630Z,21.75
2022-08-03T20:10:34.674Z,21.66
2022-08-03T20:13:08.946Z,21.69
2022-08-03T20:15:41.486Z,21.65
2022-08-03T20:18:16.560Z,21.62
2022-08-03T20:20:52.610Z,21.58
2022-08-03T20:23:37.222Z,21.55
2022-08-03T20:26:14.609Z,21.50
2022-08-03T20:28:51.276Z,21.45
2022-08-03T20:31:32.454Z,21.43
2022-08-03T20:34:09.242Z,21.42
2022-08-03T20:36:42.709Z,21.39
2022-08-03T20:39:15.236Z,21.37
2022-08-03T20:41:47.812Z,21.34
2022-08-03T20:44:25.743Z,21.33
2022-08-03T20:47:00.725Z,21.26
2022-08-03T20:49:45.990Z,21.14
2022-08-03T20:52:19.397Z,21.17
2022-08-03T20:54:52.492Z,21.13
2022-08-03T20:57:25.350Z,21.12
2022-08-03T21:00:00.289Z,21.05
2022-08-03T21:02:33.813Z,20.99
2022-08-03T21:05:10.490Z,20.99
2022-08-03T21:08:05.255Z,20.95
2022-08-03T21:10:42.123Z,20.94
2022-08-03T21:13:03.270Z,21.82
2022-08-03T21:16:06.493Z,20.90
2022-08-03T21:18:50.440Z,20.87
2022-08-03T21:21:23.620Z,20.83
2022-08-03T21:23:58.660Z,20.79
2022-08-03T21:26:33.906Z,20.76
2022-08-03T21:29:06.755Z,20.71
2022-08-03T21:31:41.301Z,20.70
2022-08-03T21:34:13.896Z,20.65
2022-08-03T21:36:46.550Z,20.62
2022-08-03T21:39:19.193Z,20.60
2022-08-03T21:41:51.622Z,20.52
2022-08-03T21:44:28.984Z,20.53
2022-08-03T21:47:03.880Z,20.51
2022-08-03T21:50:07.566Z,20.48
2022-08-03T21:52:31.761Z,20.45
2022-08-03T21:55:06.201Z,20.44
2022-08-03T21:57:42.213Z,20.41
2022-08-03T22:00:17.680Z,20.37
2022-08-03T22:02:55.393Z,20.29
2022-08-03T22:05:43.051Z,20.30
2022-08-03T22:08:16.958Z,20.30
2022-08-03T22:10:49.381Z,20.29
2022-08-03T22:13:43.867Z,20.27
2022-08-03T22:16:14.984Z,20.27
2022-08-03T22:18:49.054Z,20.25
2022-08-03T22:21:28.076Z,20.23
2022-08-03T22:24:09.496Z,20.22
2022-08-03T22:27:03.302Z,20.21
2022-08-03T22:29:39.928Z,20.21
2022-08-03T22:32:12.337Z,20.18
2022-08-03T22:34:47.734Z,20.14
2022-08-03T22:37:25.209Z,20.12
2022-08-03T22:39:59.031Z,20.09
2022-08-03T22:42:31.627Z,20.05
2022-08-03T22:45:07.235Z,20.05
2022-08-03T22:47:41.441Z,20.03
2022-08-03T22:50:32.689Z,20.01
2022-08-03T22:53:07.093Z,19.96
2022-08-03T22:55:39.769Z,19.92
2022-08-03T22:58:15.647Z,19.94
2022-08-03T23:00:53.760Z,19.91
2022-08-03T23:04:00.084Z,19.89
2022-08-03T23:06:27.265Z,19.90
2022-08-03T23:09:00.764Z,19.87
2022-08-03T23:11:37.670Z,19.79
2022-08-03T23:14:18.725Z,19.80
2022-08-03T23:16:54.413Z,19.77
2022-08-03T23:19:27.801Z,19.75
2022-08-03T23:22:28.608Z,19.73
2022-08-03T23:25:04.869Z,19.71
2022-08-03T23:27:40.577Z,19.72
2022-08-03T23:30:14.096Z,19.72
2022-08-03T23:32:48.722Z,19.73
2022-08-03T23:36:28.467Z,19.71
2022-08-03T23:38:40.529Z,19.69
2022-08-03T23:41:13.795Z,19.65
2022-08-03T23:43:51.860Z,19.63
2022-08-03T23:46:27.517Z,19.59
2022-08-03T23:49:00.359Z,19.56
2022-08-03T23:51:42.398Z,19.52
2022-08-03T23:54:26.892Z,19.49
2022-08-03T23:57:08.802Z,19.43
2022-08-03T23:59:57.119Z,19.40
